createdAt,value
2022-12-22T00:02:23.512Z,2.10
2022-12-22T00:07:44.240Z,1.80
2022-12-22T00:13:04.896Z,1.80
2022-12-22T00:18:32.382Z,1.70
2022-12-22T00:23:53.725Z,1.90
2022-12-22T00:29:14.599Z,1.60
2022-12-22T00:34:40.171Z,1.70
2022-12-22T00:40:01.663Z,3.10
2022-12-22T00:45:23.357Z,1.60
2022-12-22T00:50:49.639Z,1.50
2022-12-22T00:56:10.405Z,1.60
2022-12-22T01:01:32.002Z,1.50
2022-12-22T01:06:55.345Z,1.60
2022-12-22T01:12:16.382Z,1.50
2022-12-22T01:17:37.027Z,3.40
2022-12-22T01:22:59.739Z,1.50
2022-12-22T01:28:21.261Z,1.40
2022-12-22T01:33:41.712Z,1.40
2022-12-22T01:39:04.053Z,1.50
2022-12-22T01:44:32.580Z,1.60
2022-12-22T01:49:58.572Z,1.60
2022-12-22T01:55:24.405Z,1.50
2022-12-22T02:00:45.116Z,1.50
2022-12-22T02:06:15.975Z,1.50
2022-12-22T02:11:46.616Z,1.70
2022-12-22T02:17:14.657Z,2.00
2022-12-22T02:22:42.697Z,1.70
2022-12-22T02:28:08.438Z,1.70
2022-12-22T02:33:29.262Z,1.60
2022-12-22T02:38:58.835Z,1.60
2022-12-22T02:44:35.557Z,1.70
2022-12-22T02:50:00.479Z,1.60
2022-12-22T02:55:22.051Z,1.70
2022-12-22T03:00:44.251Z,1.70
2022-12-22T03:06:04.810Z,1.60
2022-12-22T03:11:25.632Z,1.70
2022-12-22T03:16:47.738Z,1.80
2022-12-22T03:22:08.214Z,1.80
2022-12-22T03:27:11.598Z,1.80
2022-12-22T03:32:16.196Z,1.90
2022-12-22T03:37:19.416Z,1.80
2022-12-22T03:42:40.355Z,1.80
2022-12-22T03:47:44.959Z,1.80
2022-12-22T03:52:48.159Z,1.80
2022-12-22T03:57:51.511Z,1.80
2022-12-22T04:02:56.190Z,1.90
2022-12-22T04:07:59.530Z,1.80
2022-12-22T04:13:02.741Z,1.90
2022-12-22T04:18:07.487Z,4.80
2022-12-22T04:23:10.765Z,1.80
2022-12-22T04:28:14.068Z,0.20
2022-12-22T04:33:18.864Z,1.80
2022-12-22T04:38:22.080Z,1.90
2022-12-22T04:43:25.352Z,1.80
2022-12-22T04:48:30.932Z,2.00
2022-12-22T04:53:34.624Z,2.00
2022-12-22T04:58:38.086Z,2.00
2022-12-22T05:03:42.893Z,2.00
2022-12-22T05:08:46.370Z,2.00
2022-12-22T05:13:49.778Z,2.00
2022-12-22T05:18:54.455Z,2.00
2022-12-22T05:23:57.722Z,2.00
2022-12-22T05:29:01.132Z,2.10
2022-12-22T05:34:05.857Z,2.00
2022-12-22T05:39:09.306Z,2.00
2022-12-22T05:44:12.599Z,2.00
2022-12-22T05:49:17.208Z,2.00
2022-12-22T05:54:20.511Z,1.90
2022-12-22T05:59:23.962Z,1.90
2022-12-22T06:04:28.687Z,2.00
2022-12-22T06:09:32.024Z,2.00
2022-12-22T06:14:35.343Z,2.00
2022-12-22T06:19:40.040Z,2.00
2022-12-22T06:24:43.348Z,1.80
2022-12-22T06:29:46.835Z,1.80
2022-12-22T06:34:51.803Z,1.80
2022-12-22T06:39:55.194Z,1.60
2022-12-22T06:44:58.522Z,1.60
2022-12-22T06:50:03.202Z,1.70
2022-12-22T06:55:07.068Z,1.80
2022-12-22T07:00:11.586Z,1.70
2022-12-22T07:05:16.685Z,1.80
2022-12-22T07:10:40.172Z,1.80
2022-12-22T07:15:43.493Z,2.00
2022-12-22T07:20:48.445Z,1.90
2022-12-22T07:25:52.041Z,2.00
2022-12-22T07:30:56.147Z,5.70
2022-12-22T07:36:06.158Z,2.00
2022-12-22T07:41:24.940Z,2.20
2022-12-22T07:46:29.840Z,2.20
2022-12-22T07:51:39.235Z,2.10
2022-12-22T07:56:43.094Z,2.10
2022-12-22T08:01:46.538Z,2.20
2022-12-22T08:06:51.212Z,2.30
2022-12-22T08:11:54.493Z,2.30
2022-12-22T08:16:57.719Z,2.40
2022-12-22T08:22:02.494Z,2.50
2022-12-22T08:27:12.832Z,2.60
2022-12-22T08:32:16.389Z,2.70
2022-12-22T08:37:25.874Z,2.70
2022-12-22T08:42:29.427Z,3.00
2022-12-22T08:47:32.712Z,3.30
2022-12-22T08:52:37.436Z,3.50
2022-12-22T08:57:40.658Z,3.50
2022-12-22T09:02:44.024Z,3.40
2022-12-22T09:07:48.661Z,3.70
2022-12-22T09:12:52.108Z,3.50
2022-12-22T09:17:55.341Z,3.60
2022-12-22T09:23:00.940Z,4.10
2022-12-22T09:28:08.156Z,4.10
2022-12-22T09:33:11.461Z,4.00
2022-12-22T09:38:16.050Z,4.10
2022-12-22T09:43:21.432Z,4.20
2022-12-22T09:48:26.815Z,4.80
2022-12-22T09:53:32.226Z,5.50
2022-12-22T09:58:36.941Z,6.10
2022-12-22T10:03:46.413Z,6.10
2022-12-22T10:08:51.099Z,6.10
2022-12-22T10:13:54.320Z,6.30
2022-12-22T10:19:00.802Z,7.10
2022-12-22T10:24:18.751Z,6.90
2022-12-22T10:29:22.166Z,7.30
2022-12-22T10:34:25.662Z,7.50
2022-12-22T10:39:34.237Z,9.00
2022-12-22T10:44:39.305Z,9.30
2022-12-22T10:49:46.633Z,9.10
2022-12-22T10:54:51.500Z,7.80
2022-12-22T10:59:56.110Z,7.10
2022-12-22T11:05:07.560Z,6.60
2022-12-22T11:10:21.484Z,6.70
2022-12-22T11:15:30.581Z,6.50
2022-12-22T11:20:50.957Z,6.20
2022-12-22T11:26:08.173Z,6.20
2022-12-22T11:31:23.396Z,6.00
2022-12-22T11:36:35.625Z,6.80
2022-12-22T11:41:53.589Z,6.60
2022-12-22T11:47:02.047Z,6.80
2022-12-22T11:52:18.370Z,6.80
2022-12-22T11:57:33.773Z,6.80
2022-12-22T12:03:01.907Z,7.60
2022-12-22T12:08:14.663Z,8.20
2022-12-22T12:13:36.755Z,8.30
2022-12-22T12:19:05.296Z,8.40
2022-12-22T12:24:29.942Z,8.50
2022-12-22T12:29:38.864Z,8.40
2022-12-22T12:34:45.532Z,8.10
2022-12-22T12:39:56.561Z,7.90
2022-12-22T12:45:02.565Z,7.70
2022-12-22T12:50:32.203Z,7.70
2022-12-22T12:55:51.533Z,7.80
2022-12-22T13:00:59.048Z,7.80
2022-12-22T13:06:04.122Z,7.90
2022-12-22T13:12:10.712Z,7.80
2022-12-22T13:17:42.328Z,7.70
2022-12-22T13:22:46.817Z,7.70
2022-12-22T13:27:52.001Z,7.80
2022-12-22T13:32:58.053Z,7.70
2022-12-22T13:38:01.621Z,7.70
2022-12-22T13:43:06.776Z,7.80
2022-12-22T13:48:18.078Z,7.60
2022-12-22T13:58:59.063Z,7.80
2022-12-22T14:04:07.963Z,7.90
2022-12-22T14:09:16.543Z,7.80
2022-12-22T14:14:23.640Z,7.70
2022-12-22T14:19:32.973Z,7.70
2022-12-22T14:24:42.934Z,7.70
2022-12-22T14:29:46.838Z,7.80
2022-12-22T14:34:55.821Z,7.60
2022-12-22T14:39:59.094Z,7.40
2022-12-22T14:45:02.460Z,7.40
2022-12-22T14:50:18.451Z,7.50
2022-12-22T14:55:28.443Z,7.50
2022-12-22T15:00:35.049Z,7.60
2022-12-22T15:05:42.186Z,7.50
2022-12-22T15:10:45.983Z,7.60
2022-12-22T15:15:51.193Z,7.60
2022-12-22T15:20:56.980Z,7.70
2022-12-22T15:26:00.248Z,7.90
2022-12-22T15:31:04.881Z,7.80
2022-12-22T15:36:12.401Z,7.70
2022-12-22T15:41:15.664Z,7.70
2022-12-22T15:46:19.263Z,7.80
2022-12-22T15:51:25.947Z,7.80
2022-12-22T15:56:33.434Z,7.90
2022-12-22T16:01:36.851Z,8.00
2022-12-22T16:06:41.675Z,7.90
2022-12-22T16:11:44.988Z,8.00
2022-12-22T16:16:48.550Z,8.00
2022-12-22T16:21:54.599Z,8.00
2022-12-22T16:26:58.988Z,8.00
2022-12-22T16:32:17.992Z,8.00
2022-12-22T16:37:23.175Z,7.90
2022-12-22T16:47:48.209Z,7.80
2022-12-22T16:52:52.945Z,9.30
2022-12-22T16:57:56.461Z,7.90
2022-12-22T17:03:02.910Z,7.90
2022-12-22T17:08:09.236Z,7.90
2022-12-22T17:13:13.612Z,7.90
2022-12-22T17:18:18.255Z,7.90
2022-12-22T17:23:31.976Z,7.90
2022-12-22T17:28:36.681Z,7.90
2022-12-22T17:33:40.547Z,7.80
2022-12-22T17:38:45.358Z,7.70
2022-12-22T17:43:48.716Z,7.70
2022-12-22T17:48:52.268Z,7.70
2022-12-22T17:53:59.449Z,7.70
2022-12-22T17:59:02.735Z,7.60
2022-12-22T18:04:09.855Z,7.70
2022-12-22T18:09:21.793Z,7.80
2022-12-22T18:14:25.157Z,7.90
2022-12-22T18:19:28.685Z,8.10
2022-12-22T18:24:33.316Z,8.10
2022-12-22T18:29:36.573Z,8.00
2022-12-22T18:34:41.278Z,7.80
2022-12-22T18:39:46.255Z,7.70
2022-12-22T18:44:49.555Z,7.60
2022-12-22T18:49:52.960Z,7.70
2022-12-22T18:54:57.680Z,7.90
2022-12-22T19:00:01.047Z,7.90
2022-12-22T19:05:07.926Z,7.90
2022-12-22T19:10:17.451Z,7.90
2022-12-22T19:15:24.352Z,7.90
2022-12-22T19:20:27.685Z,7.90
2022-12-22T19:25:33.219Z,7.80
2022-12-22T19:30:36.560Z,7.70
2022-12-22T19:35:39.829Z,7.50
2022-12-22T19:40:44.598Z,7.40
2022-12-22T19:45:51.359Z,7.30
2022-12-22T19:50:55.369Z,9.90
2022-12-22T19:56:00.547Z,7.20
2022-12-22T20:01:04.031Z,7.20
2022-12-22T20:06:08.921Z,7.20
2022-12-22T20:11:18.363Z,7.20
2022-12-22T20:16:22.283Z,7.20
2022-12-22T20:21:28.843Z,7.20
2022-12-22T20:26:34.014Z,7.10
2022-12-22T20:31:37.846Z,6.90
2022-12-22T20:36:42.442Z,6.90
2022-12-22T20:41:52.884Z,6.80
2022-12-22T20:46:57.274Z,6.80
2022-12-22T20:52:01.010Z,6.50
2022-12-22T20:57:06.453Z,7.30
2022-12-22T21:02:23.680Z,6.00
2022-12-22T21:07:27.409Z,5.80
2022-12-22T21:12:32.202Z,5.20
2022-12-22T21:17:35.841Z,5.80
2022-12-22T21:22:39.437Z,6.00
2022-12-22T21:27:46.878Z,6.00
2022-12-22T21:32:51.983Z,5.80
2022-12-22T21:37:56.347Z,5.70
2022-12-22T21:43:01.539Z,5.70
2022-12-22T21:48:05.495Z,5.80
2022-12-22T21:53:09.273Z,5.80
2022-12-22T21:58:15.239Z,5.80
2022-12-22T22:03:18.671Z,6.20
2022-12-22T22:08:25.745Z,5.70
2022-12-22T22:13:30.679Z,5.60
2022-12-22T22:18:33.946Z,5.60
2022-12-22T22:23:37.707Z,5.50
2022-12-22T22:28:42.319Z,5.60
2022-12-22T22:33:45.549Z,5.70
2022-12-22T22:38:51.452Z,5.70
2022-12-22T22:43:57.347Z,7.40
2022-12-22T22:49:01.464Z,5.60
2022-12-22T22:54:04.875Z,5.40
2022-12-22T22:59:12.139Z,5.50
2022-12-22T23:04:15.499Z,5.50
2022-12-22T23:09:18.971Z,5.50
2022-12-22T23:14:23.735Z,5.50
2022-12-22T23:19:27.109Z,5.60
2022-12-22T23:24:31.315Z,5.70
2022-12-22T23:29:36.973Z,5.70
2022-12-22T23:34:40.265Z,5.70
2022-12-22T23:39:43.468Z,5.70
2022-12-22T23:44:49.047Z,5.90
2022-12-22T23:49:52.258Z,6.00
2022-12-22T23:54:55.578Z,6.00
